JTA571 ROAH-ROMY
Flight info
| Callsign | JTA571 |
|---|---|
| Flight time | 0h 34m |
| Altitude | 22000 |
| Route | GANJU Y576 YUTAH |
| Aircraft | B738/M-SDE2E3FGHIRWXY/LB1 |
Departure
| Time | 2026-04-15 10:36 |
|---|---|
| Airport | Naha International Airport (ROAH) |
Arrival
| Time | 2026-04-15 11:10 |
|---|---|
| Airport | Miyako Airport (ROMY) |
| Time | Latitude | Longitude | Altitude | Speed | Heading |
|---|---|---|---|---|---|
| 2026-04-15 10:14 | 26.20570 | 127.64999 | 20 ft | 0 kts | 148° |
| 2026-04-15 10:25 | 26.20578 | 127.64994 | 21 ft | 4 kts | 144° |
| 2026-04-15 10:25 | 26.20598 | 127.64973 | 20 ft | 4 kts | 130° |
| 2026-04-15 10:26 | 26.20615 | 127.64956 | 21 ft | 4 kts | 172° |
| 2026-04-15 10:26 | 26.20633 | 127.64963 | 22 ft | 4 kts | 244° |
| 2026-04-15 10:26 | 26.20639 | 127.64983 | 20 ft | 4 kts | 274° |
| 2026-04-15 10:26 | 26.20639 | 127.64994 | 21 ft | 0 kts | 268° |
| 2026-04-15 10:28 | 26.20639 | 127.64993 | 20 ft | 0 kts | 268° |
| 2026-04-15 10:29 | 26.20638 | 127.64972 | 22 ft | 7 kts | 268° |
| 2026-04-15 10:29 | 26.20635 | 127.64888 | 20 ft | 13 kts | 267° |
| 2026-04-15 10:29 | 26.20622 | 127.64788 | 19 ft | 13 kts | 242° |
| 2026-04-15 10:29 | 26.20543 | 127.64745 | 16 ft | 13 kts | 183° |
| 2026-04-15 10:30 | 26.20455 | 127.64753 | 17 ft | 13 kts | 176° |
| 2026-04-15 10:30 | 26.20369 | 127.64757 | 17 ft | 12 kts | 178° |
| 2026-04-15 10:30 | 26.20285 | 127.64761 | 16 ft | 12 kts | 177° |
| 2026-04-15 10:30 | 26.20276 | 127.64761 | 16 ft | 12 kts | 178° |
| 2026-04-15 10:31 | 26.20241 | 127.64763 | 16 ft | 13 kts | 177° |
| 2026-04-15 10:31 | 26.20222 | 127.64764 | 16 ft | 14 kts | 177° |
| 2026-04-15 10:32 | 26.20186 | 127.64766 | 16 ft | 15 kts | 178° |
| 2026-04-15 10:32 | 26.20059 | 127.64771 | 16 ft | 21 kts | 177° |
| 2026-04-15 10:32 | 26.19915 | 127.64779 | 16 ft | 20 kts | 179° |
| 2026-04-15 10:33 | 26.19776 | 127.64785 | 16 ft | 20 kts | 177° |
| 2026-04-15 10:33 | 26.19640 | 127.64791 | 16 ft | 19 kts | 179° |
| 2026-04-15 10:33 | 26.19513 | 127.64798 | 16 ft | 15 kts | 178° |
| 2026-04-15 10:33 | 26.19407 | 127.64802 | 16 ft | 15 kts | 178° |
| 2026-04-15 10:34 | 26.19285 | 127.64808 | 16 ft | 20 kts | 178° |
| 2026-04-15 10:34 | 26.19124 | 127.64816 | 16 ft | 25 kts | 178° |
| 2026-04-15 10:34 | 26.18972 | 127.64823 | 16 ft | 19 kts | 178° |
| 2026-04-15 10:34 | 26.18865 | 127.64828 | 16 ft | 13 kts | 178° |
| 2026-04-15 10:35 | 26.18802 | 127.64777 | 16 ft | 13 kts | 260° |
| 2026-04-15 10:35 | 26.18798 | 127.64681 | 17 ft | 12 kts | 268° |
| 2026-04-15 10:35 | 26.18800 | 127.64629 | 18 ft | 5 kts | 298° |
| 2026-04-15 10:35 | 26.18821 | 127.64622 | 18 ft | 4 kts | 0° |
| 2026-04-15 10:36 | 26.19044 | 127.64613 | 18 ft | 72 kts | 357° |
| 2026-04-15 10:36 | 26.19809 | 127.64577 | 20 ft | 145 kts | 358° |
| 2026-04-15 10:36 | 26.20849 | 127.64526 | 677 ft | 153 kts | 356° |
| 2026-04-15 10:36 | 26.21965 | 127.64474 | 1385 ft | 164 kts | 354° |
| 2026-04-15 10:37 | 26.23128 | 127.64424 | 2153 ft | 176 kts | 353° |
| 2026-04-15 10:37 | 26.24473 | 127.64365 | 2487 ft | 209 kts | 354° |
| 2026-04-15 10:37 | 26.25970 | 127.64047 | 2747 ft | 227 kts | 332° |
| 2026-04-15 10:37 | 26.27370 | 127.63167 | 3306 ft | 234 kts | 326° |
| 2026-04-15 10:38 | 26.28555 | 127.61892 | 3691 ft | 248 kts | 295° |
| 2026-04-15 10:38 | 26.28829 | 127.59995 | 4320 ft | 257 kts | 263° |
| 2026-04-15 10:38 | 26.28320 | 127.58094 | 5294 ft | 258 kts | 248° |
| 2026-04-15 10:38 | 26.27517 | 127.56286 | 6194 ft | 262 kts | 244° |
| 2026-04-15 10:39 | 26.26647 | 127.54506 | 7043 ft | 266 kts | 243° |
| 2026-04-15 10:39 | 26.25749 | 127.52693 | 7911 ft | 269 kts | 243° |
| 2026-04-15 10:39 | 26.24846 | 127.50859 | 8779 ft | 271 kts | 244° |
| 2026-04-15 10:39 | 26.23939 | 127.49000 | 9688 ft | 274 kts | 244° |
| 2026-04-15 10:40 | 26.23026 | 127.47115 | 10426 ft | 282 kts | 244° |
| 2026-04-15 10:40 | 26.22059 | 127.45101 | 10651 ft | 307 kts | 244° |
| 2026-04-15 10:40 | 26.21012 | 127.42928 | 10924 ft | 327 kts | 244° |
| 2026-04-15 10:40 | 26.19923 | 127.40672 | 11515 ft | 334 kts | 244° |
| 2026-04-15 10:41 | 26.18821 | 127.38383 | 12295 ft | 336 kts | 244° |
| 2026-04-15 10:41 | 26.17731 | 127.36112 | 13061 ft | 338 kts | 244° |
| 2026-04-15 10:41 | 26.16605 | 127.33755 | 13772 ft | 342 kts | 244° |
| 2026-04-15 10:41 | 26.15499 | 127.31439 | 14404 ft | 345 kts | 244° |
| 2026-04-15 10:42 | 26.14372 | 127.29074 | 15068 ft | 347 kts | 244° |
| 2026-04-15 10:42 | 26.13238 | 127.26691 | 15699 ft | 349 kts | 244° |
| 2026-04-15 10:42 | 26.12094 | 127.24290 | 16317 ft | 352 kts | 244° |
| 2026-04-15 10:42 | 26.10939 | 127.21864 | 16931 ft | 355 kts | 244° |
| 2026-04-15 10:43 | 26.09778 | 127.19429 | 17525 ft | 358 kts | 244° |
| 2026-04-15 10:43 | 26.08607 | 127.16972 | 18098 ft | 361 kts | 244° |
| 2026-04-15 10:43 | 26.07423 | 127.14490 | 18607 ft | 364 kts | 244° |
| 2026-04-15 10:43 | 26.06243 | 127.12017 | 19070 ft | 366 kts | 244° |
| 2026-04-15 10:44 | 26.05044 | 127.09507 | 19595 ft | 367 kts | 244° |
| 2026-04-15 10:44 | 26.03846 | 127.07001 | 20234 ft | 365 kts | 245° |
| 2026-04-15 10:44 | 26.02660 | 127.04523 | 20924 ft | 362 kts | 245° |
| 2026-04-15 10:44 | 26.01477 | 127.02051 | 21575 ft | 361 kts | 245° |
| 2026-04-15 10:45 | 26.00295 | 126.99580 | 22007 ft | 363 kts | 245° |
| 2026-04-15 10:45 | 25.99111 | 126.97106 | 22026 ft | 361 kts | 245° |
| 2026-04-15 10:45 | 25.97929 | 126.94640 | 22044 ft | 362 kts | 245° |
| 2026-04-15 10:45 | 25.96745 | 126.92168 | 22048 ft | 362 kts | 245° |
| 2026-04-15 10:46 | 25.95560 | 126.89696 | 22053 ft | 362 kts | 245° |
| 2026-04-15 10:46 | 25.94389 | 126.87257 | 22047 ft | 364 kts | 245° |
| 2026-04-15 10:46 | 25.93194 | 126.84766 | 21956 ft | 364 kts | 245° |
| 2026-04-15 10:46 | 25.92003 | 126.82289 | 21940 ft | 360 kts | 245° |
| 2026-04-15 10:47 | 25.90819 | 126.79826 | 21945 ft | 362 kts | 245° |
| 2026-04-15 10:47 | 25.89633 | 126.77356 | 21939 ft | 363 kts | 245° |
| 2026-04-15 10:47 | 25.88443 | 126.74883 | 21935 ft | 362 kts | 245° |
| 2026-04-15 10:47 | 25.87254 | 126.72416 | 21932 ft | 362 kts | 245° |
| 2026-04-15 10:48 | 25.86055 | 126.70000 | 21931 ft | 362 kts | 244° |
| 2026-04-15 10:48 | 25.84814 | 126.67573 | 21933 ft | 362 kts | 243° |
| 2026-04-15 10:48 | 25.83560 | 126.65145 | 21937 ft | 362 kts | 243° |
| 2026-04-15 10:48 | 25.82303 | 126.62715 | 21937 ft | 362 kts | 243° |
| 2026-04-15 10:49 | 25.81051 | 126.60290 | 21936 ft | 362 kts | 243° |
| 2026-04-15 10:49 | 25.79796 | 126.57855 | 21935 ft | 363 kts | 243° |
| 2026-04-15 10:49 | 25.78559 | 126.55452 | 21937 ft | 363 kts | 243° |
| 2026-04-15 10:49 | 25.77306 | 126.53017 | 21936 ft | 363 kts | 243° |
| 2026-04-15 10:50 | 25.76052 | 126.50578 | 21941 ft | 364 kts | 243° |
| 2026-04-15 10:50 | 25.74795 | 126.48136 | 21936 ft | 364 kts | 243° |
| 2026-04-15 10:50 | 25.73537 | 126.45692 | 21933 ft | 364 kts | 243° |
| 2026-04-15 10:50 | 25.72279 | 126.43249 | 21929 ft | 364 kts | 243° |
| 2026-04-15 10:51 | 25.71024 | 126.40812 | 21932 ft | 364 kts | 243° |
| 2026-04-15 10:51 | 25.69765 | 126.38370 | 21709 ft | 367 kts | 243° |
| 2026-04-15 10:51 | 25.68518 | 126.35952 | 21342 ft | 363 kts | 243° |
| 2026-04-15 10:51 | 25.67267 | 126.33529 | 20896 ft | 361 kts | 243° |
| 2026-04-15 10:52 | 25.66022 | 126.31119 | 20450 ft | 358 kts | 243° |
| 2026-04-15 10:52 | 25.64788 | 126.28731 | 20006 ft | 355 kts | 243° |
| 2026-04-15 10:52 | 25.63562 | 126.26359 | 19575 ft | 352 kts | 243° |
| 2026-04-15 10:52 | 25.62345 | 126.24006 | 19126 ft | 350 kts | 243° |
| 2026-04-15 10:53 | 25.61150 | 126.21694 | 18668 ft | 349 kts | 243° |
| 2026-04-15 10:53 | 25.59944 | 126.19363 | 18225 ft | 347 kts | 243° |
| 2026-04-15 10:53 | 25.58745 | 126.17048 | 17729 ft | 345 kts | 243° |
| 2026-04-15 10:53 | 25.57555 | 126.14752 | 17280 ft | 342 kts | 243° |
| 2026-04-15 10:54 | 25.56372 | 126.12469 | 16837 ft | 339 kts | 242° |
| 2026-04-15 10:54 | 25.55202 | 126.10213 | 16403 ft | 336 kts | 242° |
| 2026-04-15 10:54 | 25.54054 | 126.08000 | 15989 ft | 334 kts | 242° |
| 2026-04-15 10:54 | 25.52900 | 126.05777 | 15567 ft | 331 kts | 242° |
| 2026-04-15 10:55 | 25.51756 | 126.03574 | 15157 ft | 329 kts | 242° |
| 2026-04-15 10:55 | 25.50618 | 126.01384 | 14746 ft | 327 kts | 242° |
| 2026-04-15 10:55 | 25.49487 | 125.99208 | 14337 ft | 325 kts | 242° |
| 2026-04-15 10:55 | 25.48363 | 125.97046 | 13934 ft | 323 kts | 242° |
| 2026-04-15 10:56 | 25.47244 | 125.94893 | 13484 ft | 322 kts | 242° |
| 2026-04-15 10:56 | 25.46130 | 125.92752 | 13048 ft | 320 kts | 242° |
| 2026-04-15 10:56 | 25.45020 | 125.90621 | 12622 ft | 318 kts | 242° |
| 2026-04-15 10:56 | 25.43932 | 125.88534 | 12223 ft | 316 kts | 242° |
| 2026-04-15 10:57 | 25.42838 | 125.86435 | 11945 ft | 310 kts | 242° |
| 2026-04-15 10:57 | 25.40702 | 125.82341 | 11237 ft | 305 kts | 242° |
| 2026-04-15 10:57 | 25.39644 | 125.80312 | 10857 ft | 304 kts | 242° |
| 2026-04-15 10:58 | 25.38591 | 125.78294 | 10608 ft | 298 kts | 242° |
| 2026-04-15 10:58 | 25.37569 | 125.76339 | 10497 ft | 288 kts | 242° |
| 2026-04-15 10:58 | 25.36912 | 125.75082 | 10414 ft | 282 kts | 242° |
| 2026-04-15 10:58 | 25.35943 | 125.73231 | 10298 ft | 274 kts | 242° |
| 2026-04-15 10:59 | 25.34344 | 125.71156 | 10136 ft | 267 kts | 219° |
| 2026-04-15 10:59 | 25.32809 | 125.70027 | 9955 ft | 263 kts | 216° |
| 2026-04-15 10:59 | 25.31781 | 125.69304 | 9768 ft | 263 kts | 216° |
| 2026-04-15 10:59 | 25.30218 | 125.68214 | 9472 ft | 268 kts | 215° |
| 2026-04-15 11:00 | 25.28621 | 125.67098 | 9190 ft | 274 kts | 215° |
| 2026-04-15 11:00 | 25.26996 | 125.65959 | 8897 ft | 278 kts | 215° |
| 2026-04-15 11:00 | 25.25363 | 125.64812 | 8588 ft | 277 kts | 215° |
| 2026-04-15 11:00 | 25.23757 | 125.63682 | 8267 ft | 276 kts | 214° |
| 2026-04-15 11:01 | 25.22143 | 125.62544 | 7996 ft | 274 kts | 214° |
| 2026-04-15 11:01 | 25.20538 | 125.61412 | 7706 ft | 273 kts | 214° |
| 2026-04-15 11:01 | 25.18946 | 125.60288 | 7409 ft | 271 kts | 214° |
| 2026-04-15 11:01 | 25.17359 | 125.59167 | 7126 ft | 270 kts | 214° |
| 2026-04-15 11:02 | 25.15779 | 125.58051 | 6843 ft | 269 kts | 214° |
| 2026-04-15 11:02 | 25.14206 | 125.56939 | 6550 ft | 268 kts | 214° |
| 2026-04-15 11:02 | 25.12641 | 125.55833 | 6271 ft | 267 kts | 214° |
| 2026-04-15 11:02 | 25.11081 | 125.54732 | 5975 ft | 266 kts | 214° |
| 2026-04-15 11:03 | 25.09527 | 125.53635 | 5686 ft | 264 kts | 214° |
| 2026-04-15 11:03 | 25.07979 | 125.52543 | 5411 ft | 263 kts | 214° |
| 2026-04-15 11:03 | 25.06442 | 125.51458 | 5133 ft | 261 kts | 214° |
| 2026-04-15 11:03 | 25.04916 | 125.50381 | 4863 ft | 260 kts | 214° |
| 2026-04-15 11:04 | 25.03399 | 125.49311 | 4585 ft | 258 kts | 214° |
| 2026-04-15 11:04 | 25.01910 | 125.48261 | 4307 ft | 256 kts | 214° |
| 2026-04-15 11:04 | 25.00415 | 125.47207 | 4040 ft | 253 kts | 214° |
| 2026-04-15 11:04 | 24.98963 | 125.46184 | 3875 ft | 239 kts | 214° |
| 2026-04-15 11:05 | 24.97609 | 125.45231 | 3762 ft | 223 kts | 214° |
| 2026-04-15 11:05 | 24.96328 | 125.44329 | 3662 ft | 215 kts | 215° |
| 2026-04-15 11:05 | 24.95090 | 125.43456 | 3564 ft | 213 kts | 214° |
| 2026-04-15 11:05 | 24.93842 | 125.42577 | 3480 ft | 212 kts | 214° |
| 2026-04-15 11:06 | 24.92589 | 125.41696 | 3325 ft | 215 kts | 214° |
| 2026-04-15 11:06 | 24.91323 | 125.40803 | 3078 ft | 214 kts | 215° |
| 2026-04-15 11:06 | 24.90174 | 125.39867 | 2827 ft | 197 kts | 220° |
| 2026-04-15 11:06 | 24.89130 | 125.38954 | 2569 ft | 184 kts | 220° |
| 2026-04-15 11:07 | 24.88175 | 125.38120 | 2330 ft | 171 kts | 220° |
| 2026-04-15 11:07 | 24.87270 | 125.37332 | 2098 ft | 160 kts | 220° |
| 2026-04-15 11:07 | 24.86424 | 125.36595 | 1921 ft | 148 kts | 219° |
| 2026-04-15 11:07 | 24.85653 | 125.35924 | 1766 ft | 138 kts | 219° |
| 2026-04-15 11:08 | 24.84886 | 125.35257 | 1554 ft | 140 kts | 219° |
| 2026-04-15 11:08 | 24.84119 | 125.34590 | 1368 ft | 140 kts | 219° |
| 2026-04-15 11:08 | 24.83361 | 125.33930 | 1168 ft | 137 kts | 219° |
| 2026-04-15 11:08 | 24.82607 | 125.33274 | 995 ft | 140 kts | 219° |
| 2026-04-15 11:09 | 24.81839 | 125.32605 | 839 ft | 138 kts | 218° |
| 2026-04-15 11:09 | 24.81087 | 125.31952 | 690 ft | 138 kts | 219° |
| 2026-04-15 11:09 | 24.80329 | 125.31292 | 524 ft | 140 kts | 219° |
| 2026-04-15 11:09 | 24.79568 | 125.30616 | 320 ft | 137 kts | 220° |
| 2026-04-15 11:10 | 24.78836 | 125.29991 | 147 ft | 131 kts | 219° |
| 2026-04-15 11:10 | 24.78239 | 125.29473 | 147 ft | 86 kts | 217° |
| 2026-04-15 11:10 | 24.77868 | 125.29151 | 141 ft | 52 kts | 218° |
| 2026-04-15 11:10 | 24.77681 | 125.28990 | 142 ft | 25 kts | 218° |
| 2026-04-15 11:11 | 24.77577 | 125.28938 | 143 ft | 10 kts | 237° |
| 2026-04-15 11:11 | 24.77579 | 125.28915 | 144 ft | 1 kts | 317° |
| 2026-04-15 11:11 | 24.77600 | 125.28923 | 144 ft | 7 kts | 32° |
| 2026-04-15 11:11 | 24.77654 | 125.28969 | 142 ft | 11 kts | 38° |
| 2026-04-15 11:12 | 24.77720 | 125.29026 | 142 ft | 15 kts | 38° |
| 2026-04-15 11:12 | 24.77814 | 125.29108 | 142 ft | 18 kts | 38° |
| 2026-04-15 11:12 | 24.77913 | 125.29193 | 141 ft | 18 kts | 38° |
| 2026-04-15 11:12 | 24.78008 | 125.29276 | 144 ft | 17 kts | 38° |
| 2026-04-15 11:13 | 24.78094 | 125.29350 | 145 ft | 11 kts | 38° |
| 2026-04-15 11:13 | 24.78094 | 125.29423 | 145 ft | 11 kts | 126° |
| 2026-04-15 11:13 | 24.78049 | 125.29486 | 144 ft | 10 kts | 128° |
| 2026-04-15 11:13 | 24.78005 | 125.29547 | 142 ft | 10 kts | 126° |
| 2026-04-15 11:14 | 24.78007 | 125.29609 | 143 ft | 6 kts | 52° |
| 2026-04-15 11:14 | 24.78011 | 125.29632 | 143 ft | 2 kts | 114° |
| 2026-04-15 11:14 | 24.78005 | 125.29643 | 144 ft | 2 kts | 123° |
| 2026-04-15 11:14 | 24.77988 | 125.29666 | 144 ft | 3 kts | 128° |
| 2026-04-15 11:15 | 24.77980 | 125.29677 | 145 ft | 1 kts | 128° |
| 2026-04-15 11:15 | 24.77980 | 125.29678 | 145 ft | 0 kts | 128° |